»·PEaware :: N19947 KAPV-KSNA

N19947 :: KAPV-KSNA

FLIGHT INFORMATION

Flight Status: Arrived
Operator: Privately registered:
United States
More flights under this callsign
Pilot: Adam A. (5112)
Aircraft: CESSNA 172 SKYHAWK
(C172)
More flights by this aircraft type
Origin: KAPV Apple Valley
United States
Destination: KSNA John Wayne-Orange Co
United States
More flights between these airports :: More routes between these airports
Route: +SOGGI V386 APLES V442 PDZ V8 SLI
File this flight plan on PilotEdge
Remarks:
Altitude:
(Current/Filed)
10,000ft
Speed:
(Current/Filed)
120kts
Departed: 16-Dec-15 11:49 AM
Arrived: 16-Dec-15 12:44 PM
Distance/Time
Traveled:
64nm/0:55
Distance/Time
To Go:
Arrived

Flight Plot

Page will automatically refresh every two minutes.

Flight plan parsing failed; only flown route is shown


Map Options




Map Legend


Flown Route
Filed Route
Departure Airport
Arrival Airport
Navaid (VOR, NDB)
Fix

Horizontal Profiles

Position Reports

Time Latitude Longitude Heading Altitude Ground
Speed
16-Dec-15 11:44 34.513321 -116.784628 284 10125ft 114kts
16-Dec-15 11:45 34.517057 -116.822784 284 10125ft 114kts
16-Dec-15 11:46 34.520647 -116.859804 284 10143ft 113kts
16-Dec-15 11:47 34.524301 -116.897606 284 10141ft 114kts
16-Dec-15 11:48 34.527994 -116.935972 284 10134ft 115kts
16-Dec-15 11:49 34.531807 -116.975568 284 10010ft 120kts
16-Dec-15 11:50 34.535577 -117.015197 284 9999ft 118kts
16-Dec-15 11:51 34.539320 -117.054493 284 9992ft 118kts
16-Dec-15 11:52 34.543080 -117.094095 284 9985ft 119kts
16-Dec-15 11:53 34.546972 -117.133569 284 9979ft 120kts
16-Dec-15 11:54 34.524860 -117.163016 211 9979ft 136kts
16-Dec-15 11:55 34.491873 -117.183818 210 9979ft 136kts
16-Dec-15 11:56 34.458555 -117.204235 209 9979ft 137kts
16-Dec-15 11:57 34.425161 -117.224545 209 9979ft 137kts
16-Dec-15 11:58 34.391544 -117.244946 209 9979ft 137kts
16-Dec-15 11:59 34.358426 -117.265024 209 9998ft 136kts
16-Dec-15 12:00 34.325279 -117.285007 210 10013ft 136kts
16-Dec-15 12:01 34.292353 -117.304976 210 10016ft 136kts
16-Dec-15 12:02 34.259852 -117.324631 210 10016ft 136kts
16-Dec-15 12:03 34.227672 -117.344064 210 10016ft 136kts
16-Dec-15 12:04 34.194604 -117.364023 210 9626ft 137kts
16-Dec-15 12:05 34.162138 -117.383597 210 9143ft 135kts
16-Dec-15 12:06 34.130189 -117.402841 210 8663ft 134kts
16-Dec-15 12:07 34.097856 -117.422299 210 8174ft 132kts
16-Dec-15 12:08 34.066231 -117.441314 210 7691ft 131kts
16-Dec-15 12:09 34.035417 -117.459826 210 7215ft 130kts
16-Dec-15 12:10 34.004525 -117.478353 210 6733ft 128kts
16-Dec-15 12:11 33.973903 -117.496717 210 6250ft 126kts
16-Dec-15 12:12 33.943648 -117.514851 210 5766ft 125kts
16-Dec-15 12:13 33.918032 -117.535140 253 5997ft 109kts
16-Dec-15 12:14 33.908087 -117.570527 257 6017ft 119kts
16-Dec-15 12:15 33.898716 -117.606919 257 5888ft 123kts
16-Dec-15 12:16 33.888855 -117.645446 256 5411ft 125kts
16-Dec-15 12:17 33.878962 -117.684036 256 4971ft 122kts
16-Dec-15 12:18 33.869312 -117.721618 256 4954ft 122kts
16-Dec-15 12:19 33.845974 -117.748909 211 4735ft 132kts
16-Dec-15 12:20 33.814947 -117.768882 211 4254ft 131kts
16-Dec-15 12:21 33.784319 -117.788813 211 3776ft 130kts
16-Dec-15 12:22 33.757457 -117.808796 222 3156ft 102kts
16-Dec-15 12:23 33.736675 -117.827415 214 2313ft 95kts
16-Dec-15 12:24 33.716024 -117.841277 222 1623ft 70kts
16-Dec-15 12:25 33.699480 -117.851666 223 755ft 67kts
16-Dec-15 12:26 33.684183 -117.861539 215 177ft 59kts
16-Dec-15 12:27 33.669451 -117.870391 202 480ft 75kts
16-Dec-15 12:28 33.665335 -117.855264 32 1165ft 73kts
16-Dec-15 12:29 33.680475 -117.845177 4 1207ft 62kts
16-Dec-15 12:31 33.681493 -117.863173 226 165ft 66kts
16-Dec-15 12:31 33.669318 -117.871319 208 455ft 70kts
16-Dec-15 12:32 33.662006 -117.855581 28 1289ft 80kts
16-Dec-15 12:33 33.678315 -117.845404 22 1185ft 63kts
16-Dec-15 12:34 33.684544 -117.859286 246 455ft 64kts
16-Dec-15 12:35 33.669034 -117.871269 210 518ft 75kts
16-Dec-15 12:36 33.660792 -117.855202 23 1049ft 89kts
16-Dec-15 12:37 33.683316 -117.842264 29 1300ft 92kts
16-Dec-15 12:38 33.694133 -117.853023 267 986ft 59kts
16-Dec-15 12:39 33.680899 -117.865536 210 91ft 54kts
16-Dec-15 12:40 33.675994 -117.869848 293 59ft 5kts
16-Dec-15 12:41 33.675918 -117.870935 232 59ft 4kts

Navigation Log

Ident Type
Flight plan parsing failed, navigation log unavailable